createdAt,value
2019-02-21T00:01:05.138Z,11.12
2019-02-21T00:03:55.207Z,11.09
2019-02-21T00:06:45.330Z,11.00
2019-02-21T00:09:35.341Z,10.95
2019-02-21T00:12:25.526Z,10.94
2019-02-21T00:15:16.144Z,10.92
2019-02-21T00:18:06.555Z,10.94
2019-02-21T00:20:56.915Z,10.78
2019-02-21T00:23:47.787Z,10.90
2019-02-21T00:26:38.125Z,10.94
2019-02-21T00:29:28.608Z,10.97
2019-02-21T00:32:18.881Z,10.94
2019-02-21T00:35:09.666Z,10.92
2019-02-21T00:38:00.061Z,10.88
2019-02-21T00:40:50.343Z,10.92
2019-02-21T00:43:40.566Z,11.00
2019-02-21T00:46:30.619Z,10.97
2019-02-21T00:49:20.863Z,10.96
2019-02-21T00:52:11.363Z,10.94
2019-02-21T00:55:01.891Z,10.82
2019-02-21T00:57:52.402Z,10.95
2019-02-21T01:00:46.444Z,10.92
2019-02-21T01:03:34.354Z,10.88
2019-02-21T01:06:24.640Z,10.87
2019-02-21T01:09:14.827Z,10.90
2019-02-21T01:12:05.178Z,10.83
2019-02-21T01:14:55.506Z,10.84
2019-02-21T01:17:45.765Z,10.84
2019-02-21T01:20:36.102Z,10.78
2019-02-21T01:23:26.545Z,10.78
2019-02-21T01:26:17.184Z,10.75
2019-02-21T01:29:07.480Z,10.72
2019-02-21T01:31:57.632Z,10.70
2019-02-21T01:34:47.866Z,10.62
2019-02-21T01:37:37.835Z,10.61
2019-02-21T01:40:28.066Z,10.65
2019-02-21T01:43:18.386Z,10.64
2019-02-21T01:46:08.614Z,10.55
2019-02-21T01:48:59.578Z,10.59
2019-02-21T01:51:49.877Z,10.62
2019-02-21T01:54:40.388Z,10.56
2019-02-21T01:57:30.741Z,10.58
2019-02-21T02:00:20.795Z,10.51
2019-02-21T02:03:11.055Z,10.48
2019-02-21T02:06:01.343Z,10.54
2019-02-21T02:08:52.586Z,10.52
2019-02-21T02:11:42.759Z,10.54
2019-02-21T02:14:32.845Z,10.45
2019-02-21T02:17:23.194Z,10.34
2019-02-21T02:20:13.159Z,10.39
2019-02-21T02:23:03.757Z,10.43
2019-02-21T02:25:54.117Z,10.38
2019-02-21T02:28:44.404Z,10.42
2019-02-21T02:31:34.649Z,10.36
2019-02-21T02:34:24.711Z,10.34
2019-02-21T02:37:15.044Z,10.46
2019-02-21T02:40:05.412Z,10.47
2019-02-21T02:42:55.529Z,10.48
2019-02-21T02:45:48.355Z,10.45
2019-02-21T02:48:38.444Z,10.44
2019-02-21T02:51:28.877Z,10.42
2019-02-21T02:54:19.991Z,10.50
2019-02-21T02:57:10.721Z,10.42
2019-02-21T03:00:01.095Z,10.37
2019-02-21T03:02:51.214Z,10.39
2019-02-21T03:05:41.186Z,10.42
2019-02-21T03:08:31.271Z,10.38
2019-02-21T03:11:21.555Z,10.38
2019-02-21T03:14:11.897Z,10.29
2019-02-21T03:17:02.373Z,10.46
2019-02-21T03:19:52.681Z,10.36
2019-02-21T03:22:43.086Z,10.39
2019-02-21T03:25:33.361Z,10.38
2019-02-21T03:28:23.931Z,10.35
2019-02-21T03:31:14.206Z,10.37
2019-02-21T03:34:04.236Z,10.34
2019-02-21T03:36:55.480Z,10.29
2019-02-21T03:39:45.797Z,10.29
2019-02-21T03:42:36.030Z,10.31
2019-02-21T03:45:26.259Z,10.27
2019-02-21T03:48:20.730Z,10.32
2019-02-21T03:51:12.500Z,10.30
2019-02-21T03:54:02.492Z,10.31
2019-02-21T03:56:52.741Z,10.20
2019-02-21T03:59:43.112Z,10.26
2019-02-21T04:02:33.327Z,10.27
2019-02-21T04:05:23.901Z,10.26
2019-02-21T04:08:14.360Z,10.26
2019-02-21T04:11:04.730Z,10.18
2019-02-21T04:13:54.901Z,10.29
2019-02-21T04:16:44.886Z,10.26
2019-02-21T04:19:36.090Z,10.21
2019-02-21T04:22:26.382Z,10.24
2019-02-21T04:25:16.695Z,10.19
2019-02-21T04:28:06.990Z,10.25
2019-02-21T04:30:59.526Z,10.19
2019-02-21T04:33:49.588Z,10.20
2019-02-21T04:36:39.949Z,10.24
2019-02-21T04:39:30.230Z,10.26
2019-02-21T04:42:20.600Z,10.26
2019-02-21T04:45:10.902Z,10.31
2019-02-21T04:48:01.175Z,10.31
2019-02-21T04:50:54.274Z,10.26
2019-02-21T04:53:42.907Z,10.23
2019-02-21T04:56:33.275Z,10.34
2019-02-21T04:59:23.376Z,10.31
2019-02-21T05:02:13.700Z,10.31
2019-02-21T05:05:03.984Z,10.33
2019-02-21T05:07:54.521Z,10.36
2019-02-21T05:10:44.932Z,10.38
2019-02-21T05:13:35.258Z,10.45
2019-02-21T05:16:25.179Z,10.56
2019-02-21T05:19:15.471Z,10.57
2019-02-21T05:22:05.772Z,10.52
2019-02-21T05:24:55.901Z,10.58
2019-02-21T05:27:53.668Z,10.66
2019-02-21T05:30:43.699Z,10.69
2019-02-21T05:33:45.422Z,10.82
2019-02-21T05:36:44.527Z,10.92
2019-02-21T05:39:46.748Z,11.00
2019-02-21T05:42:59.511Z,10.97
2019-02-21T05:46:06.910Z,11.07
2019-02-21T05:49:21.381Z,11.27
2019-02-21T05:52:33.639Z,11.36
2019-02-21T05:55:29.161Z,11.55
2019-02-21T05:58:28.533Z,11.80
2019-02-21T06:01:40.747Z,12.07
2019-02-21T06:04:44.564Z,12.50
2019-02-21T06:07:43.174Z,13.28
2019-02-21T06:10:40.779Z,14.23
2019-02-21T06:13:44.711Z,15.04
2019-02-21T06:16:44.497Z,15.92
2019-02-21T06:19:58.932Z,16.52
2019-02-21T06:23:10.797Z,16.64
2019-02-21T06:26:26.339Z,16.73
2019-02-21T06:29:22.609Z,16.59
2019-02-21T06:32:15.044Z,16.46
2019-02-21T06:35:05.809Z,16.37
2019-02-21T06:37:56.094Z,16.26
2019-02-21T06:40:47.084Z,16.19
2019-02-21T06:43:38.608Z,16.12
2019-02-21T06:46:28.918Z,16.05
2019-02-21T06:49:19.274Z,15.98
2019-02-21T06:52:09.322Z,15.95
2019-02-21T06:55:02.076Z,15.91
2019-02-21T06:57:51.218Z,16.20
2019-02-21T07:00:41.787Z,16.18
2019-02-21T07:03:32.204Z,16.06
2019-02-21T07:06:31.611Z,15.95
2019-02-21T07:09:15.209Z,15.83
2019-02-21T07:12:05.505Z,15.90
2019-02-21T07:14:55.716Z,15.94
2019-02-21T07:17:49.302Z,15.97
2019-02-21T07:20:39.732Z,16.83
2019-02-21T07:23:40.606Z,18.86
2019-02-21T07:26:21.818Z,20.66
2019-02-21T07:29:12.702Z,21.85
2019-02-21T07:32:02.772Z,22.59
2019-02-21T07:34:53.707Z,23.65
2019-02-21T07:37:44.338Z,23.59
2019-02-21T07:40:35.712Z,23.12
2019-02-21T07:43:25.911Z,22.44
2019-02-21T07:46:16.204Z,21.99
2019-02-21T07:49:06.572Z,21.38
2019-02-21T07:51:57.104Z,19.68
2019-02-21T07:54:49.455Z,19.81
2019-02-21T07:57:39.707Z,19.39
2019-02-21T08:00:29.741Z,18.81
2019-02-21T08:03:29.949Z,18.40
2019-02-21T08:06:12.222Z,19.01
2019-02-21T08:09:02.550Z,18.84
2019-02-21T08:11:56.753Z,19.40
2019-02-21T08:14:46.847Z,19.69
2019-02-21T08:17:37.052Z,22.56
2019-02-21T08:20:34.073Z,23.51
2019-02-21T08:23:20.049Z,23.47
2019-02-21T08:26:11.251Z,23.70
2019-02-21T08:29:01.906Z,23.87
2019-02-21T08:31:52.765Z,23.88
2019-02-21T08:34:48.265Z,24.25
2019-02-21T08:37:39.477Z,25.76
2019-02-21T08:40:30.384Z,25.56
2019-02-21T08:43:21.350Z,24.43
2019-02-21T08:46:12.017Z,24.06
2019-02-21T08:49:02.689Z,22.69
2019-02-21T08:51:55.008Z,21.06
2019-02-21T08:54:45.058Z,21.07
2019-02-21T08:57:35.430Z,20.75
2019-02-21T09:00:26.127Z,20.40
2019-02-21T09:03:18.085Z,20.01
2019-02-21T09:06:08.662Z,20.00
2019-02-21T09:08:58.882Z,19.64
2019-02-21T09:11:49.246Z,19.27
2019-02-21T09:14:40.193Z,19.06
2019-02-21T09:17:32.186Z,19.17
2019-02-21T09:20:22.312Z,19.69
2019-02-21T09:23:12.500Z,19.45
2019-02-21T09:26:02.772Z,20.86
2019-02-21T09:28:53.079Z,21.21
2019-02-21T09:31:43.344Z,22.11
2019-02-21T09:34:34.319Z,22.49
2019-02-21T09:37:24.595Z,21.81
2019-02-21T09:40:17.143Z,21.59
2019-02-21T09:43:07.661Z,21.00
2019-02-21T09:45:58.004Z,19.71
2019-02-21T09:48:48.323Z,19.79
2019-02-21T09:51:38.567Z,19.50
2019-02-21T09:54:28.756Z,18.85
2019-02-21T09:57:19.160Z,18.39
2019-02-21T10:00:15.248Z,18.39
2019-02-21T10:03:05.824Z,17.95
2019-02-21T10:05:56.146Z,17.95
2019-02-21T10:08:46.624Z,18.19
2019-02-21T10:11:39.230Z,18.04
2019-02-21T10:14:29.633Z,17.71
2019-02-21T10:17:19.666Z,17.69
2019-02-21T10:20:12.112Z,17.70
2019-02-21T10:23:03.207Z,17.55
2019-02-21T10:25:53.718Z,17.75
2019-02-21T10:28:45.194Z,17.78
2019-02-21T10:31:35.578Z,17.78
2019-02-21T10:34:25.920Z,17.66
2019-02-21T10:37:16.101Z,17.46
2019-02-21T10:40:07.200Z,17.58
2019-02-21T10:42:57.484Z,17.61
2019-02-21T10:45:48.327Z,17.41
2019-02-21T10:48:38.822Z,17.41
2019-02-21T10:51:29.095Z,17.35
2019-02-21T10:54:19.414Z,17.24
2019-02-21T10:57:09.357Z,17.03
2019-02-21T10:59:59.632Z,17.10
2019-02-21T11:02:53.836Z,17.00
2019-02-21T11:05:45.659Z,16.91
2019-02-21T11:08:35.982Z,16.80
2019-02-21T11:11:27.258Z,16.83
2019-02-21T11:14:17.725Z,16.66
2019-02-21T11:17:08.079Z,16.59
2019-02-21T11:19:58.435Z,16.40
2019-02-21T11:22:48.771Z,16.47
2019-02-21T11:25:38.708Z,16.51
2019-02-21T11:28:29.182Z,16.31
2019-02-21T11:31:19.263Z,16.36
2019-02-21T11:34:09.407Z,16.17
2019-02-21T11:36:59.839Z,15.97
2019-02-21T11:39:50.429Z,16.06
2019-02-21T11:42:40.856Z,16.03
2019-02-21T11:45:31.349Z,16.01
2019-02-21T11:48:21.599Z,16.00
2019-02-21T11:51:12.169Z,15.94
2019-02-21T11:54:02.402Z,15.76
2019-02-21T11:56:52.702Z,15.61
2019-02-21T11:59:42.861Z,15.43
2019-02-21T12:02:38.772Z,15.53
2019-02-21T12:05:31.517Z,15.43
2019-02-21T12:08:16.778Z,15.66
2019-02-21T12:11:06.989Z,15.61
2019-02-21T12:13:57.675Z,15.33
2019-02-21T12:16:48.048Z,15.25
2019-02-21T12:19:38.645Z,15.19
2019-02-21T12:22:28.842Z,15.05
2019-02-21T12:25:19.254Z,15.03
2019-02-21T12:28:09.282Z,14.98
2019-02-21T12:30:59.734Z,15.17
2019-02-21T12:33:49.948Z,15.27
2019-02-21T12:36:39.975Z,15.38
2019-02-21T12:39:30.259Z,15.41
2019-02-21T12:42:20.318Z,15.48
2019-02-21T12:45:12.803Z,15.54
2019-02-21T12:48:03.267Z,15.73
2019-02-21T12:50:53.708Z,15.85
2019-02-21T12:53:43.894Z,15.91
2019-02-21T12:56:34.161Z,16.11
2019-02-21T12:59:25.526Z,16.11
2019-02-21T13:02:15.835Z,16.34
2019-02-21T13:05:06.355Z,16.18
2019-02-21T13:07:57.445Z,16.15
2019-02-21T13:10:47.775Z,16.06
2019-02-21T13:13:38.059Z,16.04
2019-02-21T13:16:28.248Z,16.15
2019-02-21T13:19:18.395Z,15.94
2019-02-21T13:22:11.611Z,16.01
2019-02-21T13:25:01.643Z,15.88
2019-02-21T13:27:54.900Z,15.95
2019-02-21T13:30:45.180Z,15.86
2019-02-21T13:33:35.897Z,15.86
2019-02-21T13:36:26.505Z,15.83
2019-02-21T13:39:16.689Z,15.83
2019-02-21T13:42:06.910Z,15.91
2019-02-21T13:45:00.002Z,15.97
2019-02-21T13:47:50.026Z,15.98
2019-02-21T13:50:40.448Z,15.90
2019-02-21T13:53:30.780Z,15.93
2019-02-21T13:56:21.254Z,15.85
2019-02-21T13:59:11.496Z,15.81
2019-02-21T14:02:01.883Z,15.74
2019-02-21T14:04:52.313Z,15.59
2019-02-21T14:07:43.010Z,15.61
2019-02-21T14:10:33.522Z,15.70
2019-02-21T14:13:23.877Z,15.55
2019-02-21T14:16:14.240Z,15.48
2019-02-21T14:19:04.297Z,15.44
2019-02-21T14:21:54.701Z,15.39
2019-02-21T14:24:44.752Z,15.47
2019-02-21T14:27:35.058Z,15.40
2019-02-21T14:30:25.536Z,15.32
2019-02-21T14:33:17.449Z,15.22
2019-02-21T14:36:15.104Z,15.12
2019-02-21T14:39:00.085Z,15.14
2019-02-21T14:41:50.300Z,15.15
2019-02-21T14:44:40.839Z,14.93
2019-02-21T14:47:35.161Z,14.82
2019-02-21T14:50:25.307Z,14.76
2019-02-21T14:53:18.573Z,14.72
2019-02-21T14:56:09.027Z,14.64
2019-02-21T14:58:59.932Z,14.57
2019-02-21T15:01:50.336Z,14.48
2019-02-21T15:04:40.705Z,14.48
2019-02-21T15:07:30.805Z,14.42
2019-02-21T15:10:21.268Z,14.34
2019-02-21T15:13:12.460Z,14.28
2019-02-21T15:16:02.527Z,14.25
2019-02-21T15:18:55.185Z,14.20
2019-02-21T15:21:45.204Z,14.13
2019-02-21T15:24:35.612Z,14.04
2019-02-21T15:27:26.058Z,13.91
2019-02-21T15:30:18.112Z,13.81
2019-02-21T15:33:08.247Z,13.74
2019-02-21T15:35:58.734Z,13.64
2019-02-21T15:38:49.266Z,13.58
2019-02-21T15:41:40.865Z,13.58
2019-02-21T15:44:32.115Z,13.45
2019-02-21T15:47:22.523Z,13.40
2019-02-21T15:50:13.208Z,13.35
2019-02-21T15:53:03.293Z,13.23
2019-02-21T15:55:53.791Z,13.23
2019-02-21T15:58:43.813Z,13.22
2019-02-21T16:01:34.232Z,13.16
2019-02-21T16:04:24.624Z,13.06
2019-02-21T16:07:14.967Z,12.99
2019-02-21T16:10:08.027Z,13.00
2019-02-21T16:12:58.862Z,12.88
2019-02-21T16:15:49.671Z,12.87
2019-02-21T16:18:40.207Z,12.87
2019-02-21T16:21:30.516Z,12.89
2019-02-21T16:24:20.625Z,12.95
2019-02-21T16:27:10.893Z,12.97
2019-02-21T16:30:00.965Z,12.83
2019-02-21T16:32:51.285Z,12.71
2019-02-21T16:35:41.537Z,12.71
2019-02-21T16:38:31.709Z,12.69
2019-02-21T16:41:22.117Z,12.56
2019-02-21T16:44:12.595Z,12.55
2019-02-21T16:47:05.751Z,12.51
2019-02-21T16:49:58.365Z,12.52
2019-02-21T16:52:48.815Z,12.50
2019-02-21T16:55:39.313Z,12.53
2019-02-21T16:58:29.776Z,12.57
2019-02-21T17:01:20.133Z,12.57
2019-02-21T17:04:10.487Z,12.48
2019-02-21T17:07:00.926Z,12.53
2019-02-21T17:09:51.333Z,12.54
2019-02-21T17:12:41.654Z,12.46
2019-02-21T17:15:31.883Z,12.37
2019-02-21T17:18:22.283Z,12.38
2019-02-21T17:21:12.784Z,12.36
2019-02-21T17:24:03.301Z,12.32
2019-02-21T17:26:53.894Z,12.24
2019-02-21T17:29:44.376Z,12.22
2019-02-21T17:32:34.640Z,12.21
2019-02-21T17:35:24.902Z,12.23
2019-02-21T17:38:17.813Z,12.17
2019-02-21T17:41:10.871Z,12.16
2019-02-21T17:44:01.279Z,12.11
2019-02-21T17:46:51.715Z,12.17
2019-02-21T17:49:43.453Z,12.17
2019-02-21T17:52:33.782Z,12.13
2019-02-21T17:55:23.990Z,12.13
2019-02-21T17:58:14.295Z,12.13
2019-02-21T18:01:05.732Z,12.12
2019-02-21T18:03:55.730Z,12.15
2019-02-21T18:06:46.197Z,12.16
2019-02-21T18:09:36.772Z,12.13
2019-02-21T18:12:27.474Z,12.23
2019-02-21T18:15:19.544Z,12.16
2019-02-21T18:18:09.888Z,12.15
2019-02-21T18:20:59.887Z,12.12
2019-02-21T18:23:50.361Z,12.10
2019-02-21T18:26:40.570Z,12.08
2019-02-21T18:29:30.978Z,12.03
2019-02-21T18:32:22.466Z,12.02
2019-02-21T18:35:12.982Z,11.97
2019-02-21T18:38:03.330Z,12.03
2019-02-21T18:40:54.575Z,12.03
2019-02-21T18:43:45.171Z,12.01
2019-02-21T18:46:35.760Z,12.01
2019-02-21T18:49:26.277Z,12.00
2019-02-21T18:52:16.444Z,11.97
2019-02-21T18:55:07.061Z,11.97
2019-02-21T18:57:57.121Z,11.85
2019-02-21T19:00:47.474Z,11.86
2019-02-21T19:03:37.923Z,11.92
2019-02-21T19:06:27.958Z,11.90
2019-02-21T19:09:21.036Z,11.92
2019-02-21T19:12:11.030Z,11.96
2019-02-21T19:15:01.745Z,11.97
2019-02-21T19:17:55.037Z,11.96
2019-02-21T19:20:45.488Z,11.92
2019-02-21T19:23:35.647Z,11.97
2019-02-21T19:26:26.208Z,11.89
2019-02-21T19:29:16.691Z,11.82
2019-02-21T19:32:07.100Z,11.70
2019-02-21T19:34:57.374Z,11.59
2019-02-21T19:37:47.878Z,11.54
2019-02-21T19:40:38.157Z,11.50
2019-02-21T19:43:28.320Z,11.54
2019-02-21T19:46:18.679Z,11.52
2019-02-21T19:49:09.195Z,11.56
2019-02-21T19:51:59.754Z,11.57
2019-02-21T19:54:50.339Z,11.60
2019-02-21T19:57:40.875Z,11.62
2019-02-21T20:00:32.988Z,11.65
2019-02-21T20:03:22.989Z,11.63
2019-02-21T20:06:13.345Z,11.64
2019-02-21T20:09:04.851Z,11.63
2019-02-21T20:11:56.707Z,11.69
2019-02-21T20:14:46.939Z,11.68
2019-02-21T20:17:37.363Z,11.70
2019-02-21T20:20:27.672Z,11.74
2019-02-21T20:23:18.051Z,11.69
2019-02-21T20:26:17.957Z,11.70
2019-02-21T20:29:00.478Z,11.69
2019-02-21T20:31:50.976Z,11.69
2019-02-21T20:34:41.455Z,11.68
2019-02-21T20:37:31.720Z,11.69
2019-02-21T20:40:22.228Z,11.69
2019-02-21T20:43:12.270Z,11.67
2019-02-21T20:46:02.948Z,11.65
2019-02-21T20:48:53.391Z,11.62
2019-02-21T20:51:43.732Z,11.49
2019-02-21T20:54:34.126Z,11.37
2019-02-21T20:57:24.933Z,11.34
2019-02-21T21:00:15.306Z,11.39
2019-02-21T21:03:07.000Z,11.32
2019-02-21T21:05:57.351Z,11.26
2019-02-21T21:08:47.823Z,11.33
2019-02-21T21:11:39.402Z,11.35
2019-02-21T21:14:29.733Z,11.30
2019-02-21T21:17:20.221Z,11.28
2019-02-21T21:20:16.384Z,11.28
2019-02-21T21:23:03.451Z,11.36
2019-02-21T21:25:53.735Z,11.31
2019-02-21T21:28:44.083Z,11.27
2019-02-21T21:31:34.188Z,11.18
2019-02-21T21:34:24.417Z,11.01
2019-02-21T21:37:14.871Z,11.08
2019-02-21T21:40:05.817Z,11.09
2019-02-21T21:42:56.403Z,10.94
2019-02-21T21:45:46.837Z,10.95
2019-02-21T21:48:37.535Z,10.94
2019-02-21T21:51:28.051Z,10.95
2019-02-21T21:54:19.824Z,10.92
2019-02-21T21:57:10.715Z,10.82
2019-02-21T22:00:01.125Z,10.88
2019-02-21T22:02:53.043Z,10.93
2019-02-21T22:05:43.511Z,10.87
2019-02-21T22:08:34.116Z,10.92
2019-02-21T22:11:25.510Z,10.82
2019-02-21T22:14:15.880Z,10.89
2019-02-21T22:17:05.948Z,10.87
2019-02-21T22:19:56.191Z,10.90
2019-02-21T22:22:46.518Z,10.91
2019-02-21T22:25:37.376Z,10.91
2019-02-21T22:28:28.025Z,10.92
2019-02-21T22:31:18.442Z,10.76
2019-02-21T22:34:08.827Z,10.84
2019-02-21T22:36:59.208Z,10.87
2019-02-21T22:39:49.497Z,10.85
2019-02-21T22:42:39.867Z,10.86
2019-02-21T22:45:31.233Z,10.91
2019-02-21T22:48:21.524Z,10.91
2019-02-21T22:51:11.885Z,10.89
2019-02-21T22:54:01.941Z,10.88
2019-02-21T22:56:52.538Z,10.94
2019-02-21T22:59:43.259Z,10.92
2019-02-21T23:02:34.964Z,10.89
2019-02-21T23:05:56.736Z,10.92
2019-02-21T23:08:53.204Z,10.93
2019-02-21T23:11:45.808Z,10.90
2019-02-21T23:14:36.270Z,10.86
2019-02-21T23:17:29.080Z,10.90
2019-02-21T23:20:19.400Z,10.91
2019-02-21T23:23:12.457Z,10.96
2019-02-21T23:26:02.915Z,10.88
2019-02-21T23:28:53.294Z,10.93
2019-02-21T23:31:43.775Z,10.90
2019-02-21T23:34:38.667Z,10.85
2019-02-21T23:37:29.092Z,10.85
2019-02-21T23:40:19.551Z,10.91
2019-02-21T23:43:10.124Z,10.94
2019-02-21T23:46:04.257Z,10.99
2019-02-21T23:48:57.383Z,10.99
2019-02-21T23:51:47.610Z,11.01
2019-02-21T23:54:38.215Z,10.97
2019-02-21T23:57:28.620Z,11.00
